createdAt,value
2023-02-22T00:01:23.039Z,100.00
2023-02-22T00:03:53.467Z,100.00
2023-02-22T00:06:24.900Z,100.00
2023-02-22T00:08:53.290Z,100.00
2023-02-22T00:11:21.429Z,100.00
2023-02-22T00:13:50.429Z,100.00
2023-02-22T00:16:20.025Z,100.00
2023-02-22T00:21:37.306Z,100.00
2023-02-22T00:24:22.752Z,100.00
2023-02-22T00:26:51.571Z,100.00
2023-02-22T00:29:19.174Z,100.00
2023-02-22T00:31:46.689Z,100.00
2023-02-22T00:34:14.729Z,100.00
2023-02-22T00:36:47.520Z,100.00
2023-02-22T00:39:15.416Z,100.00
2023-02-22T00:44:45.973Z,100.00
2023-02-22T00:47:13.501Z,100.00
2023-02-22T00:52:46.512Z,100.00
2023-02-22T00:55:18.000Z,100.00
2023-02-22T00:57:45.486Z,100.00
2023-02-22T01:00:18.855Z,100.00
2023-02-22T01:02:49.950Z,100.00
2023-02-22T01:08:13.237Z,100.00
2023-02-22T01:13:45.150Z,100.00
2023-02-22T01:16:12.681Z,100.00
2023-02-22T01:18:41.064Z,100.00
2023-02-22T01:23:54.939Z,100.00
2023-02-22T01:29:22.043Z,100.00
2023-02-22T01:31:54.898Z,100.00
2023-02-22T01:34:22.896Z,100.00
2023-02-22T01:36:50.763Z,100.00
2023-02-22T01:39:19.644Z,100.00
2023-02-22T01:41:47.561Z,100.00
2023-02-22T01:44:18.502Z,100.00
2023-02-22T01:46:46.034Z,100.00
2023-02-22T01:49:15.240Z,100.00
2023-02-22T01:51:45.244Z,100.00
2023-02-22T01:54:15.962Z,100.00
2023-02-22T01:59:55.835Z,100.00
2023-02-22T02:02:25.088Z,100.00
2023-02-22T02:04:55.703Z,100.00
2023-02-22T02:07:24.147Z,100.00
2023-02-22T02:09:58.694Z,100.00
2023-02-22T02:15:22.428Z,100.00
2023-02-22T02:17:51.330Z,100.00
2023-02-22T02:20:23.388Z,100.00
2023-02-22T02:22:56.802Z,100.00
2023-02-22T02:26:11.699Z,100.00
2023-02-22T02:29:10.869Z,100.00
2023-02-22T02:32:03.376Z,100.00
2023-02-22T02:37:35.038Z,100.00
2023-02-22T02:43:13.524Z,100.00
2023-02-22T02:45:46.698Z,100.00
2023-02-22T02:48:18.974Z,100.00
2023-02-22T02:50:49.106Z,100.00
2023-02-22T02:53:20.732Z,100.00
2023-02-22T02:55:48.342Z,100.00
2023-02-22T02:58:19.648Z,100.00
2023-02-22T03:00:47.726Z,100.00
2023-02-22T03:03:29.703Z,100.00
2023-02-22T03:06:36.435Z,100.00
2023-02-22T03:09:09.702Z,100.00
2023-02-22T03:14:29.742Z,100.00
2023-02-22T03:17:01.957Z,100.00
2023-02-22T03:19:36.020Z,100.00
2023-02-22T03:22:08.834Z,100.00
2023-02-22T03:24:38.918Z,100.00
2023-02-22T03:27:09.294Z,100.00
2023-02-22T03:32:31.432Z,100.00
2023-02-22T03:35:04.589Z,100.00
2023-02-22T03:37:55.786Z,100.00
2023-02-22T03:40:28.891Z,100.00
2023-02-22T03:43:00.370Z,100.00
2023-02-22T03:45:30.261Z,100.00
2023-02-22T03:48:04.220Z,100.00
2023-02-22T03:50:35.463Z,100.00
2023-02-22T03:53:03.952Z,100.00
2023-02-22T03:58:33.516Z,100.00
2023-02-22T04:01:01.351Z,100.00
2023-02-22T04:03:28.864Z,100.00
2023-02-22T04:05:57.916Z,100.00
2023-02-22T04:11:32.882Z,100.00
2023-02-22T04:14:00.947Z,100.00
2023-02-22T04:16:28.941Z,100.00
2023-02-22T04:22:10.065Z,100.00
2023-02-22T04:24:37.781Z,100.00
2023-02-22T04:27:05.396Z,100.00
2023-02-22T04:29:36.666Z,100.00
2023-02-22T04:32:07.502Z,100.00
2023-02-22T04:37:40.454Z,100.00
2023-02-22T04:43:10.741Z,100.00
2023-02-22T04:45:38.488Z,100.00
2023-02-22T04:48:07.156Z,100.00
2023-02-22T04:50:34.797Z,100.00
2023-02-22T04:53:05.054Z,100.00
2023-02-22T04:58:23.052Z,100.00
2023-02-22T05:00:50.552Z,100.00
2023-02-22T05:03:18.085Z,100.00
2023-02-22T05:05:45.634Z,100.00
2023-02-22T05:08:14.426Z,100.00
2023-02-22T05:13:44.695Z,100.00
2023-02-22T05:16:12.458Z,100.00
2023-02-22T05:18:39.958Z,100.00
2023-02-22T05:21:07.612Z,100.00
2023-02-22T05:26:34.731Z,100.00
2023-02-22T05:29:02.390Z,100.00
2023-02-22T05:31:29.955Z,100.00
2023-02-22T05:33:58.091Z,100.00
2023-02-22T05:36:25.527Z,100.00
2023-02-22T05:38:52.940Z,100.00
2023-02-22T05:44:19.585Z,100.00
2023-02-22T05:46:47.095Z,100.00
2023-02-22T05:49:15.112Z,100.00
2023-02-22T05:51:42.542Z,100.00
2023-02-22T05:57:01.212Z,100.00
2023-02-22T06:02:27.706Z,100.00
2023-02-22T06:04:55.655Z,100.00
2023-02-22T06:07:23.559Z,100.00
2023-02-22T06:09:51.289Z,100.00
2023-02-22T06:12:18.861Z,100.00
2023-02-22T06:14:47.668Z,100.00
2023-02-22T06:17:16.193Z,100.00
2023-02-22T06:19:43.712Z,100.00
2023-02-22T06:22:15.343Z,100.00
2023-02-22T06:24:42.747Z,100.00
2023-02-22T06:27:10.233Z,100.00
2023-02-22T06:29:37.686Z,100.00
2023-02-22T06:32:31.736Z,100.00
2023-02-22T06:34:59.518Z,100.00
2023-02-22T06:40:16.717Z,100.00
2023-02-22T06:42:44.325Z,100.00
2023-02-22T06:45:12.443Z,100.00
2023-02-22T06:47:42.089Z,100.00
2023-02-22T06:50:19.475Z,100.00
2023-02-22T06:55:49.689Z,100.00
2023-02-22T06:58:17.396Z,100.00
2023-02-22T07:04:07.603Z,100.00
2023-02-22T07:09:37.659Z,100.00
2023-02-22T07:12:05.263Z,100.00
2023-02-22T07:14:32.782Z,100.00
2023-02-22T07:17:00.400Z,100.00
2023-02-22T07:22:31.983Z,100.00
2023-02-22T07:25:00.164Z,100.00
2023-02-22T07:27:27.573Z,100.00
2023-02-22T07:29:55.200Z,100.00
2023-02-22T07:35:22.134Z,100.00
2023-02-22T07:37:50.908Z,100.00
2023-02-22T07:40:20.183Z,100.00
2023-02-22T07:42:59.313Z,100.00
2023-02-22T07:45:28.900Z,100.00
2023-02-22T07:47:56.690Z,100.00
2023-02-22T07:53:16.621Z,100.00
2023-02-22T07:55:44.522Z,100.00
2023-02-22T07:58:14.958Z,100.00
2023-02-22T08:00:43.982Z,100.00
2023-02-22T08:03:13.732Z,100.00
2023-02-22T08:05:42.629Z,100.00
2023-02-22T08:08:10.115Z,100.00
2023-02-22T08:10:39.041Z,100.00
2023-02-22T08:13:06.792Z,100.00
2023-02-22T08:15:36.411Z,100.00
2023-02-22T08:21:03.659Z,100.00
2023-02-22T08:23:31.553Z,100.00
2023-02-22T08:26:07.166Z,100.00
2023-02-22T08:28:34.790Z,100.00
2023-02-22T08:33:50.844Z,100.00
2023-02-22T08:36:18.546Z,100.00
2023-02-22T08:38:46.124Z,100.00
2023-02-22T08:41:15.242Z,100.00
2023-02-22T08:43:42.806Z,100.00
2023-02-22T08:49:08.861Z,100.00
2023-02-22T08:51:37.174Z,100.00
2023-02-22T08:54:06.764Z,100.00
2023-02-22T08:56:35.641Z,100.00
2023-02-22T09:01:59.993Z,100.00
2023-02-22T09:04:27.561Z,100.00
2023-02-22T09:06:55.042Z,100.00
2023-02-22T09:09:22.651Z,100.00
2023-02-22T09:11:53.277Z,100.00
2023-02-22T09:14:20.915Z,99.42
2023-02-22T09:16:48.551Z,98.92
2023-02-22T09:19:16.202Z,98.25
2023-02-22T09:21:43.690Z,97.69
2023-02-22T09:24:11.160Z,97.33
2023-02-22T09:26:39.829Z,94.50
2023-02-22T09:29:10.549Z,95.88
2023-02-22T09:34:36.632Z,93.64
2023-02-22T09:37:04.949Z,92.48
2023-02-22T09:42:33.512Z,88.52
2023-02-22T09:45:05.824Z,85.98
2023-02-22T09:50:35.471Z,80.38
2023-02-22T09:53:04.097Z,81.09
2023-02-22T09:55:34.109Z,81.93
2023-02-22T09:58:02.355Z,80.69
2023-02-22T10:03:26.359Z,80.86
2023-02-22T10:05:56.814Z,81.43
2023-02-22T10:08:31.450Z,81.32
2023-02-22T10:14:01.430Z,81.42
2023-02-22T10:16:29.884Z,79.99
2023-02-22T10:19:01.672Z,82.06
2023-02-22T10:21:33.210Z,80.48
2023-02-22T10:24:04.342Z,81.40
2023-02-22T10:29:32.560Z,77.76
2023-02-22T10:32:01.114Z,76.64
2023-02-22T10:34:29.415Z,77.30
2023-02-22T10:36:59.456Z,77.19
2023-02-22T10:39:28.238Z,79.53
2023-02-22T10:41:56.634Z,77.10
2023-02-22T10:44:23.936Z,77.08
2023-02-22T10:46:53.220Z,76.75
2023-02-22T10:49:21.251Z,76.70
2023-02-22T10:51:49.490Z,76.83
2023-02-22T10:54:24.616Z,74.98
2023-02-22T10:56:52.335Z,74.92
2023-02-22T10:59:29.320Z,75.86
2023-02-22T11:01:56.698Z,73.30
2023-02-22T11:04:24.037Z,77.18
2023-02-22T11:07:04.291Z,73.05
2023-02-22T11:09:32.919Z,71.71
2023-02-22T11:12:08.609Z,73.31
2023-02-22T11:14:35.882Z,73.47
2023-02-22T11:20:01.665Z,70.02
2023-02-22T11:22:30.804Z,71.36
2023-02-22T11:25:00.508Z,67.98
2023-02-22T11:27:31.439Z,68.40
2023-02-22T11:32:58.861Z,69.19
2023-02-22T11:35:35.290Z,69.26
2023-02-22T11:38:12.922Z,68.88
2023-02-22T11:40:41.734Z,70.62
2023-02-22T11:43:12.085Z,70.67
2023-02-22T11:45:44.220Z,68.32
2023-02-22T11:48:19.718Z,70.19
2023-02-22T11:53:58.122Z,70.53
2023-02-22T11:59:17.543Z,68.13
2023-02-22T12:01:47.127Z,68.57
2023-02-22T12:07:15.704Z,66.96
2023-02-22T12:09:44.453Z,68.15
2023-02-22T12:12:14.591Z,68.37
2023-02-22T12:14:44.597Z,68.74
2023-02-22T12:20:01.929Z,71.06
2023-02-22T12:22:29.686Z,69.62
2023-02-22T12:25:09.022Z,69.72
2023-02-22T12:27:38.553Z,67.70
2023-02-22T12:30:08.345Z,65.80
2023-02-22T12:32:37.986Z,66.99
2023-02-22T12:35:06.297Z,66.06
2023-02-22T12:37:35.708Z,68.45
2023-02-22T12:40:08.238Z,65.05
2023-02-22T12:42:39.657Z,66.41
2023-02-22T12:45:11.298Z,66.24
2023-02-22T12:47:40.389Z,64.95
2023-02-22T12:50:12.577Z,64.47
2023-02-22T12:52:42.664Z,61.09
2023-02-22T12:55:13.392Z,61.59
2023-02-22T12:57:44.218Z,59.85
2023-02-22T13:03:03.117Z,61.80
2023-02-22T13:05:31.599Z,65.64
2023-02-22T13:08:03.306Z,63.00
2023-02-22T13:13:20.763Z,59.28
2023-02-22T13:15:50.833Z,59.78
2023-02-22T13:18:21.124Z,57.91
2023-02-22T13:20:49.107Z,62.34
2023-02-22T13:23:18.894Z,62.06
2023-02-22T13:25:49.839Z,59.71
2023-02-22T13:28:22.342Z,61.29
2023-02-22T13:30:52.287Z,57.80
2023-02-22T13:33:24.223Z,58.62
2023-02-22T13:36:09.485Z,58.38
2023-02-22T13:38:46.220Z,57.90
2023-02-22T13:44:27.216Z,65.21
2023-02-22T13:47:00.007Z,68.02
2023-02-22T13:49:33.285Z,69.08
2023-02-22T13:55:01.337Z,66.95
2023-02-22T13:57:29.532Z,68.13
2023-02-22T14:02:58.498Z,69.36
2023-02-22T14:05:45.184Z,70.01
2023-02-22T14:08:27.814Z,69.62
2023-02-22T14:10:56.734Z,69.32
2023-02-22T14:13:26.464Z,70.08
2023-02-22T14:16:25.895Z,70.65
2023-02-22T14:19:01.971Z,71.06
2023-02-22T14:21:29.380Z,70.92
2023-02-22T14:23:57.205Z,69.65
2023-02-22T14:26:27.396Z,72.23
2023-02-22T14:28:55.456Z,70.77
2023-02-22T14:31:35.526Z,70.94
2023-02-22T14:34:10.628Z,71.85
2023-02-22T14:36:40.658Z,71.10
2023-02-22T14:39:11.815Z,70.05
2023-02-22T14:41:41.843Z,70.94
2023-02-22T14:47:08.307Z,72.34
2023-02-22T14:49:37.236Z,71.57
2023-02-22T14:52:30.162Z,72.08
2023-02-22T14:55:02.886Z,73.15
2023-02-22T15:00:37.940Z,75.56
2023-02-22T15:03:05.281Z,74.72
2023-02-22T15:08:41.562Z,76.92
2023-02-22T15:14:25.250Z,76.86
2023-02-22T15:16:55.782Z,76.11
2023-02-22T15:19:26.029Z,76.14
2023-02-22T15:21:54.328Z,75.19
2023-02-22T15:27:14.077Z,75.42
2023-02-22T15:29:44.320Z,77.26
2023-02-22T15:32:30.113Z,77.60
2023-02-22T15:35:06.027Z,78.61
2023-02-22T15:37:33.342Z,79.07
2023-02-22T15:40:07.343Z,78.67
2023-02-22T15:45:25.023Z,79.68
2023-02-22T15:47:54.317Z,79.44
2023-02-22T15:50:23.688Z,78.89
2023-02-22T15:52:53.221Z,80.95
2023-02-22T15:55:21.233Z,81.58
2023-02-22T15:57:48.582Z,80.66
2023-02-22T16:03:16.276Z,80.13
2023-02-22T16:05:44.981Z,78.65
2023-02-22T16:10:59.021Z,79.41
2023-02-22T16:16:27.392Z,80.67
2023-02-22T16:18:55.480Z,80.10
2023-02-22T16:21:23.626Z,80.17
2023-02-22T16:23:52.082Z,80.50
2023-02-22T16:26:28.664Z,79.74
2023-02-22T16:28:57.090Z,81.75
2023-02-22T16:31:25.682Z,82.02
2023-02-22T16:33:53.835Z,81.21
2023-02-22T16:36:21.355Z,81.27
2023-02-22T16:38:49.654Z,87.15
2023-02-22T16:41:19.715Z,86.13
2023-02-22T16:46:52.977Z,87.92
2023-02-22T16:49:22.915Z,86.60
2023-02-22T16:51:53.375Z,87.58
2023-02-22T16:54:36.331Z,85.81
2023-02-22T16:57:04.958Z,89.11
2023-02-22T16:59:33.564Z,90.11
2023-02-22T17:05:04.963Z,88.76
2023-02-22T17:07:32.412Z,88.72
2023-02-22T17:10:00.245Z,88.87
2023-02-22T17:12:28.408Z,90.12
2023-02-22T17:14:56.248Z,89.56
2023-02-22T17:20:29.902Z,89.17
2023-02-22T17:26:02.039Z,91.14
2023-02-22T17:28:29.923Z,91.44
2023-02-22T17:31:01.266Z,91.50
2023-02-22T17:33:32.689Z,91.98
2023-02-22T17:36:03.083Z,93.97
2023-02-22T17:41:29.508Z,92.49
2023-02-22T17:43:58.028Z,92.19
2023-02-22T17:46:26.035Z,91.86
2023-02-22T17:48:54.256Z,93.98
2023-02-22T17:51:25.157Z,93.35
2023-02-22T17:53:52.820Z,93.51
2023-02-22T17:56:20.706Z,94.71
2023-02-22T17:58:50.023Z,92.58
2023-02-22T18:01:46.434Z,91.44
2023-02-22T18:04:13.897Z,89.28
2023-02-22T18:09:41.852Z,87.28
2023-02-22T18:12:09.569Z,86.74
2023-02-22T18:17:17.883Z,85.39
2023-02-22T18:19:45.414Z,85.44
2023-02-22T18:25:22.522Z,85.23
2023-02-22T18:30:54.796Z,85.41
2023-02-22T18:33:23.846Z,85.31
2023-02-22T18:35:52.404Z,85.73
2023-02-22T18:38:23.747Z,85.96
2023-02-22T18:40:59.423Z,86.67
2023-02-22T18:43:27.129Z,86.10
2023-02-22T18:45:56.165Z,85.84
2023-02-22T18:48:24.951Z,84.99
2023-02-22T18:50:52.620Z,84.59
2023-02-22T18:53:20.141Z,84.29
2023-02-22T18:55:50.352Z,84.19
2023-02-22T18:58:17.792Z,83.85
2023-02-22T19:03:44.031Z,83.54
2023-02-22T19:06:11.481Z,83.19
2023-02-22T19:08:40.553Z,84.03
2023-02-22T19:11:10.412Z,83.79
2023-02-22T19:13:38.573Z,83.41
2023-02-22T19:16:07.983Z,84.33
2023-02-22T19:18:35.739Z,84.21
2023-02-22T19:21:10.189Z,84.04
2023-02-22T19:23:45.224Z,84.01
2023-02-22T19:26:13.597Z,83.57
2023-02-22T19:28:41.120Z,84.27
2023-02-22T19:31:14.292Z,84.19
2023-02-22T19:33:42.168Z,84.56
2023-02-22T19:36:13.062Z,84.46
2023-02-22T19:41:42.770Z,85.34
2023-02-22T19:44:10.475Z,85.98
2023-02-22T19:46:40.545Z,86.78
2023-02-22T19:49:08.359Z,86.37
2023-02-22T19:51:37.735Z,86.51
2023-02-22T19:54:07.030Z,86.40
2023-02-22T19:56:36.244Z,86.63
2023-02-22T19:59:10.703Z,87.58
2023-02-22T20:01:38.242Z,87.76
2023-02-22T20:04:07.430Z,87.34
2023-02-22T20:06:40.032Z,87.12
2023-02-22T20:12:06.946Z,87.41
2023-02-22T20:14:34.591Z,87.34
2023-02-22T20:17:04.432Z,87.90
2023-02-22T20:19:32.214Z,88.20
2023-02-22T20:22:01.150Z,87.69
2023-02-22T20:24:28.852Z,89.02
2023-02-22T20:26:58.127Z,88.91
2023-02-22T20:29:29.455Z,88.91
2023-02-22T20:31:58.000Z,88.38
2023-02-22T20:34:26.444Z,89.04
2023-02-22T20:36:54.204Z,90.90
2023-02-22T20:39:23.141Z,90.78
2023-02-22T20:41:50.693Z,90.34
2023-02-22T20:44:19.658Z,91.25
2023-02-22T20:46:48.074Z,91.53
2023-02-22T20:49:17.820Z,91.02
2023-02-22T20:51:45.824Z,90.80
2023-02-22T20:57:03.155Z,91.70
2023-02-22T20:59:30.765Z,89.55
2023-02-22T21:01:58.192Z,90.02
2023-02-22T21:07:24.607Z,90.86
2023-02-22T21:09:52.432Z,92.25
2023-02-22T21:12:21.284Z,92.49
2023-02-22T21:14:49.000Z,91.52
2023-02-22T21:17:21.429Z,91.91
2023-02-22T21:19:49.043Z,92.69
2023-02-22T21:22:16.536Z,91.59
2023-02-22T21:24:44.007Z,91.10
2023-02-22T21:27:12.201Z,91.67
2023-02-22T21:29:41.149Z,90.36
2023-02-22T21:32:09.581Z,89.27
2023-02-22T21:34:37.321Z,89.92
2023-02-22T21:37:07.933Z,90.12
2023-02-22T21:39:35.511Z,91.63
2023-02-22T21:42:05.390Z,92.02
2023-02-22T21:44:32.866Z,91.52
2023-02-22T21:47:01.905Z,92.50
2023-02-22T21:49:29.518Z,90.72
2023-02-22T21:51:57.449Z,91.07
2023-02-22T21:54:24.933Z,90.02
2023-02-22T21:56:54.293Z,90.79
2023-02-22T21:59:23.583Z,89.78
2023-02-22T22:01:55.205Z,90.98
2023-02-22T22:04:27.373Z,92.29
2023-02-22T22:06:56.497Z,92.51
2023-02-22T22:09:25.032Z,92.62
2023-02-22T22:14:34.818Z,92.38
2023-02-22T22:20:06.310Z,92.01
2023-02-22T22:22:33.864Z,91.56
2023-02-22T22:25:03.285Z,91.57
2023-02-22T22:27:30.888Z,92.58
2023-02-22T22:32:48.830Z,92.21
2023-02-22T22:35:17.275Z,93.64
2023-02-22T22:37:47.206Z,94.67
2023-02-22T22:40:15.638Z,94.55
2023-02-22T22:42:43.461Z,94.42
2023-02-22T22:45:11.608Z,94.93
2023-02-22T22:50:37.616Z,95.80
2023-02-22T22:56:05.395Z,95.92
2023-02-22T22:58:33.696Z,96.32
2023-02-22T23:01:06.242Z,96.23
2023-02-22T23:03:36.759Z,95.81
2023-02-22T23:06:06.484Z,95.76
2023-02-22T23:08:42.914Z,95.65
2023-02-22T23:11:11.677Z,96.94
2023-02-22T23:16:42.526Z,96.22
2023-02-22T23:19:10.074Z,96.26
2023-02-22T23:21:39.698Z,97.31
2023-02-22T23:24:08.058Z,97.23
2023-02-22T23:26:35.574Z,97.03
2023-02-22T23:32:01.321Z,96.95
2023-02-22T23:34:29.160Z,95.69
2023-02-22T23:36:58.146Z,95.56
2023-02-22T23:39:26.021Z,95.49
2023-02-22T23:41:54.153Z,95.27
2023-02-22T23:44:21.979Z,95.48
2023-02-22T23:46:54.919Z,95.90
2023-02-22T23:49:23.079Z,96.09
2023-02-22T23:51:51.064Z,96.45
2023-02-22T23:54:21.535Z,99.37
2023-02-22T23:59:47.258Z,100.00
